sensor_id;sensor_type;location;lat;lon;timestamp;P1;durP1;ratioP1;P2;durP2;ratioP2
1879;SDS011;49285;49.002;8.390;2022-12-18T00:02:00;58.20;;;26.57;;
1879;SDS011;49285;49.002;8.390;2022-12-18T00:04:26;49.70;;;26.17;;
1879;SDS011;49285;49.002;8.390;2022-12-18T00:06:52;51.33;;;26.57;;
1879;SDS011;49285;49.002;8.390;2022-12-18T00:09:18;43.67;;;24.37;;
1879;SDS011;49285;49.002;8.390;2022-12-18T00:11:44;44.10;;;23.63;;
1879;SDS011;49285;49.002;8.390;2022-12-18T00:14:10;51.03;;;26.20;;
1879;SDS011;49285;49.002;8.390;2022-12-18T00:16:37;43.10;;;23.70;;
1879;SDS011;49285;49.002;8.390;2022-12-18T00:19:03;44.67;;;24.53;;
1879;SDS011;49285;49.002;8.390;2022-12-18T00:21:29;45.83;;;25.90;;
1879;SDS011;49285;49.002;8.390;2022-12-18T00:23:56;51.17;;;27.77;;
1879;SDS011;49285;49.002;8.390;2022-12-18T00:26:24;48.97;;;27.50;;
1879;SDS011;49285;49.002;8.390;2022-12-18T00:28:51;52.67;;;27.80;;
1879;SDS011;49285;49.002;8.390;2022-12-18T00:31:18;43.70;;;22.63;;
1879;SDS011;49285;49.002;8.390;2022-12-18T00:33:46;44.13;;;24.57;;
1879;SDS011;49285;49.002;8.390;2022-12-18T00:36:14;59.07;;;26.30;;
1879;SDS011;49285;49.002;8.390;2022-12-18T00:38:41;48.17;;;23.43;;
1879;SDS011;49285;49.002;8.390;2022-12-18T00:41:07;46.43;;;23.47;;
1879;SDS011;49285;49.002;8.390;2022-12-18T00:43:34;54.77;;;26.73;;
1879;SDS011;49285;49.002;8.390;2022-12-18T00:46:00;51.80;;;24.63;;
1879;SDS011;49285;49.002;8.390;2022-12-18T00:48:25;57.27;;;27.30;;
1879;SDS011;49285;49.002;8.390;2022-12-18T00:50:51;39.97;;;22.23;;
1879;SDS011;49285;49.002;8.390;2022-12-18T00:53:17;43.73;;;22.33;;
1879;SDS011;49285;49.002;8.390;2022-12-18T00:55:43;43.77;;;24.00;;
1879;SDS011;49285;49.002;8.390;2022-12-18T00:58:09;46.40;;;25.97;;
1879;SDS011;49285;49.002;8.390;2022-12-18T01:00:36;50.90;;;23.50;;
1879;SDS011;49285;49.002;8.390;2022-12-18T01:03:03;62.00;;;28.30;;
1879;SDS011;49285;49.002;8.390;2022-12-18T01:05:29;48.13;;;25.93;;
1879;SDS011;49285;49.002;8.390;2022-12-18T01:07:55;41.67;;;23.90;;
1879;SDS011;49285;49.002;8.390;2022-12-18T01:10:21;48.40;;;26.83;;
1879;SDS011;49285;49.002;8.390;2022-12-18T01:12:47;50.20;;;26.80;;
1879;SDS011;49285;49.002;8.390;2022-12-18T01:15:13;53.47;;;26.33;;
1879;SDS011;49285;49.002;8.390;2022-12-18T01:17:41;55.30;;;25.43;;
1879;SDS011;49285;49.002;8.390;2022-12-18T01:20:08;56.20;;;28.20;;
1879;SDS011;49285;49.002;8.390;2022-12-18T01:22:34;43.90;;;25.53;;
1879;SDS011;49285;49.002;8.390;2022-12-18T01:25:01;53.73;;;26.93;;
1879;SDS011;49285;49.002;8.390;2022-12-18T01:27:27;56.70;;;27.27;;
1879;SDS011;49285;49.002;8.390;2022-12-18T01:29:52;53.80;;;26.20;;
1879;SDS011;49285;49.002;8.390;2022-12-18T01:32:18;49.80;;;27.17;;
1879;SDS011;49285;49.002;8.390;2022-12-18T01:34:43;62.57;;;26.60;;
1879;SDS011;49285;49.002;8.390;2022-12-18T01:37:09;46.87;;;24.80;;
1879;SDS011;49285;49.002;8.390;2022-12-18T01:39:35;49.37;;;24.43;;
1879;SDS011;49285;49.002;8.390;2022-12-18T01:42:05;54.40;;;25.57;;
1879;SDS011;49285;49.002;8.390;2022-12-18T01:47:40;53.70;;;25.77;;
1879;SDS011;49285;49.002;8.390;2022-12-18T01:50:36;50.07;;;27.20;;
1879;SDS011;49285;49.002;8.390;2022-12-18T01:53:13;45.93;;;22.90;;
1879;SDS011;49285;49.002;8.390;2022-12-18T01:55:55;47.47;;;24.40;;
1879;SDS011;49285;49.002;8.390;2022-12-18T01:58:24;60.07;;;25.93;;
1879;SDS011;49285;49.002;8.390;2022-12-18T02:01:16;59.20;;;24.80;;
1879;SDS011;49285;49.002;8.390;2022-12-18T02:03:42;44.30;;;25.00;;
1879;SDS011;49285;49.002;8.390;2022-12-18T02:08:40;43.30;;;23.07;;
1879;SDS011;49285;49.002;8.390;2022-12-18T02:11:21;54.03;;;26.13;;
1879;SDS011;49285;49.002;8.390;2022-12-18T02:22:27;55.57;;;25.73;;
1879;SDS011;49285;49.002;8.390;2022-12-18T02:25:06;50.27;;;24.70;;
1879;SDS011;49285;49.002;8.390;2022-12-18T02:27:44;49.80;;;24.43;;
1879;SDS011;49285;49.002;8.390;2022-12-18T02:30:12;48.63;;;24.87;;
1879;SDS011;49285;49.002;8.390;2022-12-18T02:32:39;45.20;;;26.03;;
1879;SDS011;49285;49.002;8.390;2022-12-18T02:35:11;58.23;;;26.23;;
1879;SDS011;49285;49.002;8.390;2022-12-18T02:37:42;55.93;;;26.63;;
1879;SDS011;49285;49.002;8.390;2022-12-18T02:40:09;47.37;;;22.80;;
1879;SDS011;49285;49.002;8.390;2022-12-18T02:42:37;52.90;;;25.57;;
1879;SDS011;49285;49.002;8.390;2022-12-18T02:45:03;55.33;;;27.13;;
1879;SDS011;49285;49.002;8.390;2022-12-18T02:47:29;49.43;;;25.73;;
1879;SDS011;49285;49.002;8.390;2022-12-18T02:55:57;47.30;;;23.20;;
1879;SDS011;49285;49.002;8.390;2022-12-18T03:01:24;47.77;;;24.40;;
1879;SDS011;49285;49.002;8.390;2022-12-18T03:03:57;54.73;;;26.73;;
1879;SDS011;49285;49.002;8.390;2022-12-18T03:06:33;53.17;;;25.33;;
1879;SDS011;49285;49.002;8.390;2022-12-18T03:09:06;41.60;;;23.83;;
1879;SDS011;49285;49.002;8.390;2022-12-18T03:11:34;40.10;;;22.23;;
1879;SDS011;49285;49.002;8.390;2022-12-18T03:14:23;39.57;;;22.00;;
1879;SDS011;49285;49.002;8.390;2022-12-18T03:16:52;46.23;;;24.27;;
1879;SDS011;49285;49.002;8.390;2022-12-18T03:19:24;47.13;;;22.83;;
1879;SDS011;49285;49.002;8.390;2022-12-18T03:21:54;47.90;;;21.90;;
1879;SDS011;49285;49.002;8.390;2022-12-18T03:24:21;55.40;;;27.77;;
1879;SDS011;49285;49.002;8.390;2022-12-18T03:26:50;52.10;;;24.50;;
1879;SDS011;49285;49.002;8.390;2022-12-18T03:29:21;53.37;;;25.47;;
1879;SDS011;49285;49.002;8.390;2022-12-18T03:31:53;49.53;;;25.60;;
1879;SDS011;49285;49.002;8.390;2022-12-18T03:34:24;50.50;;;24.33;;
1879;SDS011;49285;49.002;8.390;2022-12-18T03:36:54;41.67;;;24.10;;
1879;SDS011;49285;49.002;8.390;2022-12-18T03:39:20;47.00;;;22.17;;
1879;SDS011;49285;49.002;8.390;2022-12-18T03:41:53;43.60;;;21.13;;
1879;SDS011;49285;49.002;8.390;2022-12-18T03:47:14;43.23;;;23.93;;
1879;SDS011;49285;49.002;8.390;2022-12-18T03:50:16;41.27;;;25.17;;
1879;SDS011;49285;49.002;8.390;2022-12-18T03:55:14;53.40;;;25.83;;
1879;SDS011;49285;49.002;8.390;2022-12-18T03:57:40;46.30;;;24.47;;
1879;SDS011;49285;49.002;8.390;2022-12-18T04:00:11;48.23;;;23.27;;
1879;SDS011;49285;49.002;8.390;2022-12-18T04:02:38;51.97;;;23.37;;
1879;SDS011;49285;49.002;8.390;2022-12-18T04:05:08;45.93;;;22.90;;
1879;SDS011;49285;49.002;8.390;2022-12-18T04:07:35;47.63;;;24.53;;
1879;SDS011;49285;49.002;8.390;2022-12-18T04:10:02;43.67;;;23.50;;
1879;SDS011;49285;49.002;8.390;2022-12-18T04:12:31;47.80;;;25.07;;
1879;SDS011;49285;49.002;8.390;2022-12-18T04:14:56;51.27;;;24.70;;
1879;SDS011;49285;49.002;8.390;2022-12-18T04:17:22;52.97;;;26.63;;
1879;SDS011;49285;49.002;8.390;2022-12-18T04:19:48;60.33;;;25.37;;
1879;SDS011;49285;49.002;8.390;2022-12-18T04:22:14;49.37;;;27.67;;
1879;SDS011;49285;49.002;8.390;2022-12-18T04:24:40;50.43;;;25.87;;
1879;SDS011;49285;49.002;8.390;2022-12-18T04:27:06;50.17;;;25.57;;
1879;SDS011;49285;49.002;8.390;2022-12-18T04:29:31;53.33;;;24.93;;
1879;SDS011;49285;49.002;8.390;2022-12-18T04:31:57;56.90;;;25.40;;
1879;SDS011;49285;49.002;8.390;2022-12-18T04:34:22;64.87;;;27.70;;
1879;SDS011;49285;49.002;8.390;2022-12-18T04:36:48;57.07;;;26.40;;
1879;SDS011;49285;49.002;8.390;2022-12-18T04:39:14;66.20;;;27.70;;
1879;SDS011;49285;49.002;8.390;2022-12-18T04:41:42;64.90;;;26.43;;
1879;SDS011;49285;49.002;8.390;2022-12-18T04:44:08;64.53;;;28.50;;
1879;SDS011;49285;49.002;8.390;2022-12-18T04:46:34;66.07;;;28.57;;
1879;SDS011;49285;49.002;8.390;2022-12-18T04:48:59;59.77;;;25.70;;
1879;SDS011;49285;49.002;8.390;2022-12-18T04:51:25;56.67;;;26.83;;
1879;SDS011;49285;49.002;8.390;2022-12-18T04:53:50;67.90;;;27.40;;
1879;SDS011;49285;49.002;8.390;2022-12-18T04:56:16;53.33;;;26.87;;
1879;SDS011;49285;49.002;8.390;2022-12-18T04:58:42;71.87;;;26.63;;
1879;SDS011;49285;49.002;8.390;2022-12-18T05:01:09;58.37;;;27.50;;
1879;SDS011;49285;49.002;8.390;2022-12-18T05:03:35;68.30;;;26.10;;
1879;SDS011;49285;49.002;8.390;2022-12-18T05:06:02;70.43;;;28.10;;
1879;SDS011;49285;49.002;8.390;2022-12-18T05:08:28;51.50;;;25.87;;
1879;SDS011;49285;49.002;8.390;2022-12-18T05:11:00;57.63;;;27.00;;
1879;SDS011;49285;49.002;8.390;2022-12-18T05:13:27;51.00;;;25.97;;
1879;SDS011;49285;49.002;8.390;2022-12-18T05:15:53;79.77;;;27.00;;
1879;SDS011;49285;49.002;8.390;2022-12-18T05:18:20;56.13;;;25.60;;
1879;SDS011;49285;49.002;8.390;2022-12-18T05:20:46;68.70;;;27.80;;
1879;SDS011;49285;49.002;8.390;2022-12-18T05:23:12;65.17;;;25.30;;
1879;SDS011;49285;49.002;8.390;2022-12-18T05:25:37;70.17;;;24.50;;
1879;SDS011;49285;49.002;8.390;2022-12-18T05:28:03;74.97;;;28.87;;
1879;SDS011;49285;49.002;8.390;2022-12-18T05:30:29;68.50;;;29.67;;
1879;SDS011;49285;49.002;8.390;2022-12-18T05:32:54;57.90;;;25.07;;
1879;SDS011;49285;49.002;8.390;2022-12-18T05:35:20;50.77;;;23.30;;
1879;SDS011;49285;49.002;8.390;2022-12-18T05:37:45;60.57;;;27.87;;
1879;SDS011;49285;49.002;8.390;2022-12-18T05:40:11;58.70;;;24.47;;
1879;SDS011;49285;49.002;8.390;2022-12-18T05:42:37;71.03;;;28.10;;
1879;SDS011;49285;49.002;8.390;2022-12-18T05:45:03;54.37;;;27.63;;
1879;SDS011;49285;49.002;8.390;2022-12-18T05:47:29;58.80;;;26.83;;
1879;SDS011;49285;49.002;8.390;2022-12-18T05:49:55;57.80;;;26.37;;
1879;SDS011;49285;49.002;8.390;2022-12-18T05:52:20;58.37;;;24.60;;
1879;SDS011;49285;49.002;8.390;2022-12-18T05:54:46;58.53;;;26.33;;
1879;SDS011;49285;49.002;8.390;2022-12-18T05:57:12;70.47;;;27.83;;
1879;SDS011;49285;49.002;8.390;2022-12-18T05:59:37;63.73;;;27.70;;
1879;SDS011;49285;49.002;8.390;2022-12-18T06:02:03;58.43;;;24.90;;
1879;SDS011;49285;49.002;8.390;2022-12-18T06:04:28;62.40;;;27.63;;
1879;SDS011;49285;49.002;8.390;2022-12-18T06:06:54;56.70;;;23.60;;
1879;SDS011;49285;49.002;8.390;2022-12-18T06:09:19;54.50;;;25.00;;
1879;SDS011;49285;49.002;8.390;2022-12-18T06:11:45;59.40;;;25.07;;
1879;SDS011;49285;49.002;8.390;2022-12-18T06:14:10;49.70;;;23.97;;
1879;SDS011;49285;49.002;8.390;2022-12-18T06:16:36;52.47;;;25.30;;
1879;SDS011;49285;49.002;8.390;2022-12-18T06:19:03;58.60;;;25.33;;
1879;SDS011;49285;49.002;8.390;2022-12-18T06:21:30;53.97;;;24.40;;
1879;SDS011;49285;49.002;8.390;2022-12-18T06:23:57;49.27;;;24.47;;
1879;SDS011;49285;49.002;8.390;2022-12-18T06:26:23;56.93;;;25.03;;
1879;SDS011;49285;49.002;8.390;2022-12-18T06:28:48;60.43;;;25.03;;
1879;SDS011;49285;49.002;8.390;2022-12-18T06:31:14;53.83;;;24.57;;
1879;SDS011;49285;49.002;8.390;2022-12-18T06:33:40;62.87;;;27.23;;
1879;SDS011;49285;49.002;8.390;2022-12-18T06:36:07;49.27;;;24.00;;
1879;SDS011;49285;49.002;8.390;2022-12-18T06:38:35;59.13;;;25.10;;
1879;SDS011;49285;49.002;8.390;2022-12-18T06:41:09;65.00;;;26.47;;
1879;SDS011;49285;49.002;8.390;2022-12-18T06:43:36;58.00;;;28.27;;
1879;SDS011;49285;49.002;8.390;2022-12-18T06:46:02;57.47;;;24.67;;
1879;SDS011;49285;49.002;8.390;2022-12-18T06:48:29;47.70;;;22.50;;
1879;SDS011;49285;49.002;8.390;2022-12-18T06:50:55;66.20;;;25.00;;
1879;SDS011;49285;49.002;8.390;2022-12-18T06:53:20;43.80;;;23.10;;
1879;SDS011;49285;49.002;8.390;2022-12-18T06:55:46;60.50;;;23.97;;
1879;SDS011;49285;49.002;8.390;2022-12-18T06:58:11;49.43;;;24.37;;
1879;SDS011;49285;49.002;8.390;2022-12-18T07:00:37;49.07;;;23.77;;
1879;SDS011;49285;49.002;8.390;2022-12-18T07:03:03;60.17;;;25.17;;
1879;SDS011;49285;49.002;8.390;2022-12-18T07:05:28;48.57;;;22.43;;
1879;SDS011;49285;49.002;8.390;2022-12-18T07:07:54;53.60;;;24.80;;
1879;SDS011;49285;49.002;8.390;2022-12-18T07:10:19;57.10;;;25.53;;
1879;SDS011;49285;49.002;8.390;2022-12-18T07:12:45;57.80;;;22.73;;
1879;SDS011;49285;49.002;8.390;2022-12-18T07:15:11;57.77;;;25.80;;
1879;SDS011;49285;49.002;8.390;2022-12-18T07:17:36;53.73;;;25.87;;
1879;SDS011;49285;49.002;8.390;2022-12-18T07:20:02;57.07;;;25.23;;
1879;SDS011;49285;49.002;8.390;2022-12-18T07:22:28;53.63;;;23.93;;
1879;SDS011;49285;49.002;8.390;2022-12-18T07:24:53;44.60;;;22.60;;
1879;SDS011;49285;49.002;8.390;2022-12-18T07:27:20;61.90;;;27.53;;
1879;SDS011;49285;49.002;8.390;2022-12-18T07:29:45;52.10;;;23.60;;
1879;SDS011;49285;49.002;8.390;2022-12-18T07:32:11;58.33;;;24.17;;
1879;SDS011;49285;49.002;8.390;2022-12-18T07:34:36;54.87;;;23.03;;
1879;SDS011;49285;49.002;8.390;2022-12-18T07:37:02;52.10;;;25.10;;
1879;SDS011;49285;49.002;8.390;2022-12-18T07:39:28;50.93;;;23.10;;
1879;SDS011;49285;49.002;8.390;2022-12-18T07:41:53;59.93;;;24.83;;
1879;SDS011;49285;49.002;8.390;2022-12-18T07:44:37;59.50;;;25.10;;
1879;SDS011;49285;49.002;8.390;2022-12-18T07:47:03;55.20;;;25.23;;
1879;SDS011;49285;49.002;8.390;2022-12-18T07:49:28;46.60;;;22.53;;
1879;SDS011;49285;49.002;8.390;2022-12-18T07:51:54;48.27;;;23.13;;
1879;SDS011;49285;49.002;8.390;2022-12-18T07:54:21;56.83;;;23.50;;
1879;SDS011;49285;49.002;8.390;2022-12-18T07:56:47;56.97;;;22.70;;
1879;SDS011;49285;49.002;8.390;2022-12-18T07:59:12;54.47;;;21.97;;
1879;SDS011;49285;49.002;8.390;2022-12-18T08:01:38;60.67;;;25.27;;
1879;SDS011;49285;49.002;8.390;2022-12-18T08:04:03;58.13;;;23.97;;
1879;SDS011;49285;49.002;8.390;2022-12-18T08:06:29;57.87;;;23.53;;
1879;SDS011;49285;49.002;8.390;2022-12-18T08:08:55;58.43;;;26.50;;
1879;SDS011;49285;49.002;8.390;2022-12-18T08:11:21;51.83;;;21.70;;
1879;SDS011;49285;49.002;8.390;2022-12-18T08:13:48;61.70;;;22.90;;
1879;SDS011;49285;49.002;8.390;2022-12-18T08:16:14;53.17;;;23.80;;
1879;SDS011;49285;49.002;8.390;2022-12-18T08:18:40;48.83;;;24.93;;
1879;SDS011;49285;49.002;8.390;2022-12-18T08:21:16;56.40;;;25.27;;
1879;SDS011;49285;49.002;8.390;2022-12-18T08:23:47;54.43;;;23.67;;
1879;SDS011;49285;49.002;8.390;2022-12-18T08:26:13;53.67;;;23.50;;
1879;SDS011;49285;49.002;8.390;2022-12-18T08:28:39;45.87;;;24.87;;
1879;SDS011;49285;49.002;8.390;2022-12-18T08:31:05;52.27;;;23.87;;
1879;SDS011;49285;49.002;8.390;2022-12-18T08:33:32;52.57;;;24.60;;
1879;SDS011;49285;49.002;8.390;2022-12-18T08:35:58;59.20;;;24.90;;
1879;SDS011;49285;49.002;8.390;2022-12-18T08:38:24;60.80;;;27.40;;
1879;SDS011;49285;49.002;8.390;2022-12-18T08:40:57;54.43;;;26.60;;
1879;SDS011;49285;49.002;8.390;2022-12-18T08:43:24;68.23;;;24.23;;
1879;SDS011;49285;49.002;8.390;2022-12-18T08:46:08;58.40;;;25.10;;
1879;SDS011;49285;49.002;8.390;2022-12-18T08:48:34;54.87;;;24.50;;
1879;SDS011;49285;49.002;8.390;2022-12-18T08:50:59;53.03;;;23.93;;
1879;SDS011;49285;49.002;8.390;2022-12-18T08:53:25;63.20;;;25.20;;
1879;SDS011;49285;49.002;8.390;2022-12-18T08:55:51;54.50;;;23.67;;
1879;SDS011;49285;49.002;8.390;2022-12-18T08:58:18;51.20;;;21.83;;
1879;SDS011;49285;49.002;8.390;2022-12-18T09:00:44;64.00;;;28.40;;
1879;SDS011;49285;49.002;8.390;2022-12-18T09:03:11;58.20;;;25.70;;
1879;SDS011;49285;49.002;8.390;2022-12-18T09:05:37;51.70;;;24.97;;
1879;SDS011;49285;49.002;8.390;2022-12-18T09:08:03;60.43;;;29.47;;
1879;SDS011;49285;49.002;8.390;2022-12-18T09:10:28;63.90;;;28.20;;
1879;SDS011;49285;49.002;8.390;2022-12-18T09:12:54;56.77;;;26.03;;
1879;SDS011;49285;49.002;8.390;2022-12-18T09:15:21;59.40;;;25.77;;
1879;SDS011;49285;49.002;8.390;2022-12-18T09:17:46;68.17;;;28.30;;
1879;SDS011;49285;49.002;8.390;2022-12-18T09:20:13;55.17;;;29.50;;
1879;SDS011;49285;49.002;8.390;2022-12-18T09:22:38;52.43;;;24.07;;
1879;SDS011;49285;49.002;8.390;2022-12-18T09:25:04;50.20;;;24.47;;
1879;SDS011;49285;49.002;8.390;2022-12-18T09:27:32;54.00;;;24.17;;
1879;SDS011;49285;49.002;8.390;2022-12-18T09:29:58;47.03;;;23.47;;
1879;SDS011;49285;49.002;8.390;2022-12-18T09:32:24;51.90;;;24.30;;
1879;SDS011;49285;49.002;8.390;2022-12-18T09:34:50;47.87;;;24.87;;
1879;SDS011;49285;49.002;8.390;2022-12-18T09:37:15;49.20;;;24.73;;
1879;SDS011;49285;49.002;8.390;2022-12-18T09:39:41;49.20;;;23.77;;
1879;SDS011;49285;49.002;8.390;2022-12-18T09:42:06;55.37;;;25.97;;
1879;SDS011;49285;49.002;8.390;2022-12-18T09:44:45;55.43;;;24.40;;
1879;SDS011;49285;49.002;8.390;2022-12-18T09:49:47;55.60;;;24.60;;
1879;SDS011;49285;49.002;8.390;2022-12-18T09:52:23;55.97;;;26.20;;
1879;SDS011;49285;49.002;8.390;2022-12-18T09:54:56;49.47;;;24.70;;
1879;SDS011;49285;49.002;8.390;2022-12-18T09:57:25;53.40;;;27.03;;
1879;SDS011;49285;49.002;8.390;2022-12-18T09:59:58;51.37;;;25.93;;
1879;SDS011;49285;49.002;8.390;2022-12-18T10:02:39;53.47;;;25.97;;
1879;SDS011;49285;49.002;8.390;2022-12-18T10:05:17;59.13;;;27.23;;
1879;SDS011;49285;49.002;8.390;2022-12-18T10:10:26;58.47;;;26.73;;
1879;SDS011;49285;49.002;8.390;2022-12-18T10:21:33;52.30;;;26.43;;
1879;SDS011;49285;49.002;8.390;2022-12-18T10:24:27;67.60;;;26.63;;
1879;SDS011;49285;49.002;8.390;2022-12-18T10:26:55;49.90;;;23.23;;
1879;SDS011;49285;49.002;8.390;2022-12-18T10:29:33;52.07;;;25.80;;
1879;SDS011;49285;49.002;8.390;2022-12-18T10:31:59;57.40;;;24.23;;
1879;SDS011;49285;49.002;8.390;2022-12-18T10:34:24;60.10;;;27.27;;
1879;SDS011;49285;49.002;8.390;2022-12-18T10:36:50;58.13;;;26.07;;
1879;SDS011;49285;49.002;8.390;2022-12-18T10:41:48;52.57;;;27.03;;
1879;SDS011;49285;49.002;8.390;2022-12-18T10:44:18;50.13;;;26.50;;
1879;SDS011;49285;49.002;8.390;2022-12-18T10:46:46;57.30;;;26.63;;
1879;SDS011;49285;49.002;8.390;2022-12-18T10:49:32;58.40;;;25.67;;
1879;SDS011;49285;49.002;8.390;2022-12-18T10:54:48;67.40;;;27.50;;
1879;SDS011;49285;49.002;8.390;2022-12-18T10:59:57;63.27;;;30.23;;
1879;SDS011;49285;49.002;8.390;2022-12-18T11:02:27;58.27;;;29.33;;
1879;SDS011;49285;49.002;8.390;2022-12-18T11:04:59;51.03;;;27.27;;
1879;SDS011;49285;49.002;8.390;2022-12-18T11:07:25;62.73;;;27.63;;
1879;SDS011;49285;49.002;8.390;2022-12-18T11:10:00;59.07;;;26.47;;
1879;SDS011;49285;49.002;8.390;2022-12-18T11:12:26;60.97;;;27.03;;
1879;SDS011;49285;49.002;8.390;2022-12-18T11:14:54;65.00;;;26.97;;
1879;SDS011;49285;49.002;8.390;2022-12-18T11:17:22;54.10;;;26.23;;
1879;SDS011;49285;49.002;8.390;2022-12-18T11:19:53;50.43;;;25.10;;
1879;SDS011;49285;49.002;8.390;2022-12-18T11:22:24;61.97;;;27.10;;
1879;SDS011;49285;49.002;8.390;2022-12-18T11:27:37;57.23;;;27.30;;
1879;SDS011;49285;49.002;8.390;2022-12-18T11:30:08;58.77;;;25.27;;
1879;SDS011;49285;49.002;8.390;2022-12-18T11:32:46;62.47;;;28.20;;
1879;SDS011;49285;49.002;8.390;2022-12-18T11:35:18;52.50;;;24.93;;
1879;SDS011;49285;49.002;8.390;2022-12-18T11:38:02;54.53;;;24.53;;
1879;SDS011;49285;49.002;8.390;2022-12-18T11:40:36;61.37;;;27.00;;
1879;SDS011;49285;49.002;8.390;2022-12-18T11:43:14;59.10;;;27.57;;
1879;SDS011;49285;49.002;8.390;2022-12-18T11:45:55;56.60;;;26.00;;
1879;SDS011;49285;49.002;8.390;2022-12-18T11:51:35;63.07;;;28.87;;
1879;SDS011;49285;49.002;8.390;2022-12-18T11:54:15;58.03;;;26.93;;
1879;SDS011;49285;49.002;8.390;2022-12-18T11:56:55;56.50;;;25.60;;
1879;SDS011;49285;49.002;8.390;2022-12-18T12:05:10;56.50;;;27.63;;
1879;SDS011;49285;49.002;8.390;2022-12-18T12:07:45;56.67;;;28.60;;
1879;SDS011;49285;49.002;8.390;2022-12-18T12:10:32;66.33;;;30.07;;
1879;SDS011;49285;49.002;8.390;2022-12-18T12:13:23;73.80;;;29.17;;
1879;SDS011;49285;49.002;8.390;2022-12-18T12:38:01;61.27;;;27.37;;
1879;SDS011;49285;49.002;8.390;2022-12-18T12:40:47;56.80;;;26.93;;
1879;SDS011;49285;49.002;8.390;2022-12-18T12:43:34;56.73;;;27.00;;
1879;SDS011;49285;49.002;8.390;2022-12-18T12:46:07;52.57;;;29.07;;
1879;SDS011;49285;49.002;8.390;2022-12-18T12:51:11;55.77;;;26.47;;
1879;SDS011;49285;49.002;8.390;2022-12-18T12:53:37;57.30;;;27.80;;
1879;SDS011;49285;49.002;8.390;2022-12-18T12:56:06;54.73;;;28.17;;
1879;SDS011;49285;49.002;8.390;2022-12-18T12:58:41;52.47;;;29.30;;
1879;SDS011;49285;49.002;8.390;2022-12-18T13:01:17;52.33;;;26.80;;
1879;SDS011;49285;49.002;8.390;2022-12-18T13:06:27;60.17;;;30.50;;
1879;SDS011;49285;49.002;8.390;2022-12-18T13:09:07;53.70;;;27.20;;
1879;SDS011;49285;49.002;8.390;2022-12-18T13:14:28;47.70;;;26.43;;
1879;SDS011;49285;49.002;8.390;2022-12-18T13:19:51;57.00;;;29.63;;
1879;SDS011;49285;49.002;8.390;2022-12-18T13:22:35;53.13;;;28.30;;
1879;SDS011;49285;49.002;8.390;2022-12-18T13:25:03;49.20;;;27.90;;
1879;SDS011;49285;49.002;8.390;2022-12-18T13:28:11;59.83;;;28.43;;
1879;SDS011;49285;49.002;8.390;2022-12-18T13:30:42;53.10;;;26.80;;
1879;SDS011;49285;49.002;8.390;2022-12-18T13:38:21;53.30;;;27.67;;
1879;SDS011;49285;49.002;8.390;2022-12-18T13:45:45;58.43;;;28.30;;
1879;SDS011;49285;49.002;8.390;2022-12-18T13:48:23;45.07;;;26.63;;
1879;SDS011;49285;49.002;8.390;2022-12-18T13:50:52;51.90;;;27.10;;
1879;SDS011;49285;49.002;8.390;2022-12-18T13:53:33;56.40;;;27.83;;
1879;SDS011;49285;49.002;8.390;2022-12-18T13:56:03;58.93;;;28.33;;
1879;SDS011;49285;49.002;8.390;2022-12-18T13:58:30;63.63;;;30.47;;
1879;SDS011;49285;49.002;8.390;2022-12-18T14:00:55;53.20;;;27.07;;
1879;SDS011;49285;49.002;8.390;2022-12-18T14:03:25;57.90;;;30.00;;
1879;SDS011;49285;49.002;8.390;2022-12-18T14:05:59;45.27;;;26.63;;
1879;SDS011;49285;49.002;8.390;2022-12-18T14:08:38;59.17;;;27.30;;
1879;SDS011;49285;49.002;8.390;2022-12-18T14:11:06;53.27;;;27.00;;
1879;SDS011;49285;49.002;8.390;2022-12-18T14:13:34;52.27;;;28.10;;
1879;SDS011;49285;49.002;8.390;2022-12-18T14:16:03;48.67;;;26.20;;
1879;SDS011;49285;49.002;8.390;2022-12-18T14:21:23;49.00;;;26.60;;
1879;SDS011;49285;49.002;8.390;2022-12-18T14:26:43;51.57;;;26.37;;
1879;SDS011;49285;49.002;8.390;2022-12-18T14:32:04;51.27;;;27.07;;
1879;SDS011;49285;49.002;8.390;2022-12-18T14:34:38;51.73;;;28.13;;
1879;SDS011;49285;49.002;8.390;2022-12-18T14:37:04;50.00;;;26.00;;
1879;SDS011;49285;49.002;8.390;2022-12-18T14:39:31;53.80;;;28.37;;
1879;SDS011;49285;49.002;8.390;2022-12-18T14:41:57;59.80;;;30.10;;
1879;SDS011;49285;49.002;8.390;2022-12-18T14:44:22;55.43;;;28.70;;
1879;SDS011;49285;49.002;8.390;2022-12-18T14:46:49;61.07;;;27.80;;
1879;SDS011;49285;49.002;8.390;2022-12-18T14:49:32;61.43;;;29.47;;
1879;SDS011;49285;49.002;8.390;2022-12-18T14:52:05;52.03;;;26.50;;
1879;SDS011;49285;49.002;8.390;2022-12-18T14:54:38;56.87;;;29.40;;
1879;SDS011;49285;49.002;8.390;2022-12-18T14:59:50;57.03;;;27.50;;
1879;SDS011;49285;49.002;8.390;2022-12-18T15:04:41;45.27;;;24.07;;
1879;SDS011;49285;49.002;8.390;2022-12-18T15:07:15;52.20;;;28.77;;
1879;SDS011;49285;49.002;8.390;2022-12-18T15:10:03;48.83;;;26.80;;
1879;SDS011;49285;49.002;8.390;2022-12-18T15:12:34;58.03;;;29.10;;
1879;SDS011;49285;49.002;8.390;2022-12-18T15:14:59;67.03;;;30.20;;
1879;SDS011;49285;49.002;8.390;2022-12-18T15:17:25;52.30;;;27.37;;
1879;SDS011;49285;49.002;8.390;2022-12-18T15:19:53;51.40;;;28.50;;
1879;SDS011;49285;49.002;8.390;2022-12-18T15:22:26;55.70;;;29.73;;
1879;SDS011;49285;49.002;8.390;2022-12-18T15:24:58;57.80;;;29.60;;
1879;SDS011;49285;49.002;8.390;2022-12-18T15:27:33;56.17;;;27.97;;
1879;SDS011;49285;49.002;8.390;2022-12-18T15:32:35;53.13;;;28.70;;
1879;SDS011;49285;49.002;8.390;2022-12-18T15:37:38;50.80;;;28.50;;
1879;SDS011;49285;49.002;8.390;2022-12-18T15:40:04;53.70;;;26.90;;
1879;SDS011;49285;49.002;8.390;2022-12-18T15:42:30;61.90;;;31.40;;
1879;SDS011;49285;49.002;8.390;2022-12-18T15:45:14;57.03;;;29.40;;
1879;SDS011;49285;49.002;8.390;2022-12-18T15:47:40;56.20;;;28.70;;
1879;SDS011;49285;49.002;8.390;2022-12-18T15:50:08;65.43;;;31.97;;
1879;SDS011;49285;49.002;8.390;2022-12-18T15:52:41;67.93;;;31.70;;
1879;SDS011;49285;49.002;8.390;2022-12-18T15:57:57;57.67;;;29.23;;
1879;SDS011;49285;49.002;8.390;2022-12-18T16:00:22;66.90;;;31.00;;
1879;SDS011;49285;49.002;8.390;2022-12-18T16:02:48;56.43;;;30.47;;
1879;SDS011;49285;49.002;8.390;2022-12-18T16:05:14;53.60;;;28.50;;
1879;SDS011;49285;49.002;8.390;2022-12-18T16:07:42;65.93;;;32.20;;
1879;SDS011;49285;49.002;8.390;2022-12-18T16:10:08;66.33;;;31.60;;
1879;SDS011;49285;49.002;8.390;2022-12-18T16:12:34;65.23;;;33.00;;
1879;SDS011;49285;49.002;8.390;2022-12-18T16:15:00;55.23;;;30.13;;
1879;SDS011;49285;49.002;8.390;2022-12-18T16:17:26;55.30;;;30.83;;
1879;SDS011;49285;49.002;8.390;2022-12-18T16:19:51;57.70;;;30.60;;
1879;SDS011;49285;49.002;8.390;2022-12-18T16:22:18;62.17;;;31.80;;
1879;SDS011;49285;49.002;8.390;2022-12-18T16:24:46;57.13;;;30.00;;
1879;SDS011;49285;49.002;8.390;2022-12-18T16:27:12;57.77;;;30.73;;
1879;SDS011;49285;49.002;8.390;2022-12-18T16:29:37;62.90;;;29.50;;
1879;SDS011;49285;49.002;8.390;2022-12-18T16:32:03;58.40;;;30.30;;
1879;SDS011;49285;49.002;8.390;2022-12-18T16:34:29;54.50;;;30.30;;
1879;SDS011;49285;49.002;8.390;2022-12-18T16:36:58;54.00;;;28.50;;
1879;SDS011;49285;49.002;8.390;2022-12-18T16:39:29;58.53;;;29.23;;
1879;SDS011;49285;49.002;8.390;2022-12-18T16:41:55;61.83;;;29.03;;
1879;SDS011;49285;49.002;8.390;2022-12-18T16:44:25;66.33;;;29.73;;
1879;SDS011;49285;49.002;8.390;2022-12-18T16:46:50;61.70;;;33.03;;
1879;SDS011;49285;49.002;8.390;2022-12-18T16:49:17;66.83;;;30.30;;
1879;SDS011;49285;49.002;8.390;2022-12-18T16:51:43;64.50;;;32.50;;